Language selection

My Weather Profile Weather Topics  | 

Atlantic - Labrador: Past 24 Hour Conditions

 

Kangiqsualujjuaq Airport

04:00 AM EDT 22 June 2021
Disclaimer

This table is a summary of hourly weather conditions for the past 24 hours.
Please note that these observations might not always be representative of weather conditions over their associated marine area.

Date / Time
(EDT)
Wind(knots) Conditions Visibility(km) Pressure(kPa) Air tempC) Relative humidity(%) Dew pointC) Humidex
22 June 2021
4:00 SE 21 gust 29 N/A N/A 99.1 13 81 9 *
3:00 SE 18 gust 30 N/A N/A 99.2 14 69 8 *
2:00 SE 17 gust 25 N/A N/A 99.3 14 69 8 *
1:00 SE 25 gust 33 N/A N/A 99.4 15 65 8 *
0:00 SE 24 gust 32 N/A N/A 99.5 16 56 7 *
21 June 2021
23:00 SE 22 gust 28 N/A N/A 99.6 16 55 7 *
22:00 ESE 15 gust 22 N/A N/A 99.7 16 54 7 *
21:00 SE 21 gust 29 N/A N/A 99.8 16 52 6 *
20:00 SE 17 gust 26 N/A N/A 99.8 17 50 7 *
19:00 SE 17 gust 27 N/A N/A 99.9 19 47 7 *
18:00 SE 22 gust 28 N/A N/A 99.9 20 44 7 *
17:00 SE 21 gust 27 Mostly Cloudy 24 99.9 21 40 7 *
16:00 SE 22 gust 30 Mostly Cloudy 24 100.0 21 39 7 *
15:00 SE 24 gust 30 Partly Cloudy 24 100.0 21 40 8 22
14:00 SE 22 gust 28 Partly Cloudy 24 100.1 21 41 7 *
13:00 ESE 19 gust 25 Partly Cloudy 24 100.1 21 43 8 *
12:00 ESE 18 gust 25 Partly Cloudy 24 100.2 19 45 7 *
11:00 ESE 21 gust 27 Mainly Sunny 24 100.2 18 47 7 *
10:00 ESE 19 gust 27 Partly Cloudy 24 100.3 17 48 6 *
9:00 ESE 19 gust 26 Partly Cloudy 24 100.4 15 52 5 *
8:00 SE 14 gust 19 Partly Cloudy 24 100.4 13 55 4 *
7:00 ESE 17 gust 25 N/A N/A 100.5 13 54 4 *
6:00 ESE 17 gust 22 N/A N/A 100.5 12 56 3 *
5:00 ESE 15 N/A N/A 100.6 11 61 4 *
4:00 SE 13 gust 18 N/A N/A 100.6 10 65 3 *

Zoom-in to make a selection

Map of Atlantic - Labrador marine weather areas Kangiqsualujjuaq Airport Cape Kakkiviak Cape Kiglapait Cartwright Airport CFB Goose Bay Hopedale Mary's Harbour Nain Airport Makkovik Airport Saglek Tukialik Bay
Legend:
buoy Buoy
land station Land Station

Atlantic - Labrador Area

Another Region

What we are doing

Date modified: